Time,TemperatureF,DewpointF,PressureIn,WindDirection,WindDirectionDegrees,WindSpeedMPH,WindSpeedGustMPH,Humidity,HourlyPrecipIn,Conditions,Clouds,dailyrainin,SoftwareType,DateUTC
2013-04-11 00:04:00,21.2,15.7,30.31,WNW,285,1.0,1.0,79,0.00,,,0.00,Wunderground v.1.15,2013-04-11 06:04:00,
2013-04-11 00:10:00,21.0,15.5,30.32,WNW,285,1.0,2.0,79,0.00,,,0.00,Wunderground v.1.15,2013-04-11 06:10:00,
2013-04-11 00:16:00,20.9,15.4,30.31,WNW,285,2.0,3.0,79,0.00,,,0.00,Wunderground v.1.15,2013-04-11 06:16:00,
2013-04-11 00:22:00,20.7,15.2,30.31,WNW,285,2.0,3.0,79,0.00,,,0.00,Wunderground v.1.15,2013-04-11 06:22:00,
2013-04-11 00:28:00,20.4,14.9,30.31,WNW,283,3.0,4.0,79,0.00,,,0.00,Wunderground v.1.15,2013-04-11 06:28:00,
2013-04-11 00:33:00,20.1,14.6,30.31,West,262,3.0,4.0,79,0.00,,,0.00,Wunderground v.1.15,2013-04-11 06:33:00,
2013-04-11 00:39:00,19.9,14.4,30.31,West,259,3.0,3.0,79,0.00,,,0.00,Wunderground v.1.15,2013-04-11 06:39:00,
2013-04-11 00:44:00,19.8,14.3,30.31,West,259,3.0,3.0,79,0.00,,,0.00,Wunderground v.1.15,2013-04-11 06:44:00,
2013-04-11 00:50:00,19.8,14.3,30.30,West,259,2.0,2.0,79,0.00,,,0.00,Wunderground v.1.15,2013-04-11 06:50:00,
2013-04-11 00:55:00,19.6,14.1,30.30,West,260,2.0,3.0,79,0.00,,,0.00,Wunderground v.1.15,2013-04-11 06:55:00,
2013-04-11 01:01:00,19.3,13.9,30.30,West,260,2.0,3.0,79,0.00,,,0.00,Wunderground v.1.15,2013-04-11 07:01:00,
2013-04-11 01:08:00,18.8,13.4,30.30,West,260,2.0,3.0,79,0.00,,,0.00,Wunderground v.1.15,2013-04-11 07:08:00,
2013-04-11 01:13:00,18.7,13.6,30.30,West,260,2.0,3.0,80,0.00,,,0.00,Wunderground v.1.15,2013-04-11 07:13:00,
2013-04-11 01:20:00,18.4,13.3,30.30,West,260,2.0,3.0,80,0.00,,,0.00,Wunderground v.1.15,2013-04-11 07:20:00,
2013-04-11 01:26:00,18.3,12.9,30.29,West,260,1.0,3.0,79,0.00,,,0.00,Wunderground v.1.15,2013-04-11 07:26:00,
2013-04-11 01:34:00,18.0,12.9,30.29,West,260,1.0,2.0,80,0.00,,,0.00,Wunderground v.1.15,2013-04-11 07:34:00,
2013-04-11 01:40:00,17.6,12.5,30.29,West,260,2.0,2.0,80,0.00,,,0.00,Wunderground v.1.15,2013-04-11 07:40:00,
2013-04-11 01:49:00,17.1,12.3,30.28,West,260,2.0,2.0,81,0.00,,,0.00,Wunderground v.1.15,2013-04-11 07:49:00,
2013-04-11 01:58:00,16.4,11.6,30.27,West,260,1.0,2.0,81,0.00,,,0.00,Wunderground v.1.15,2013-04-11 07:58:00,
2013-04-11 02:03:00,16.3,11.5,30.27,West,260,1.0,2.0,81,0.00,,,0.00,Wunderground v.1.15,2013-04-11 08:03:00,
2013-04-11 02:10:00,17.0,12.5,30.27,West,260,2.0,2.0,82,0.00,,,0.00,Wunderground v.1.15,2013-04-11 08:10:00,
2013-04-11 02:20:00,17.3,12.5,30.26,West,260,2.0,2.0,81,0.00,,,0.00,Wunderground v.1.15,2013-04-11 08:20:00,
2013-04-11 02:53:00,15.6,11.4,30.24,West,260,1.0,1.0,83,0.00,,,0.00,Wunderground v.1.15,2013-04-11 08:53:00,
2013-04-11 03:05:00,16.6,12.1,30.24,West,260,2.0,3.0,82,0.00,,,0.00,Wunderground v.1.15,2013-04-11 09:05:00,
2013-04-11 03:12:00,16.4,11.6,30.24,West,260,2.0,2.0,81,0.00,,,0.00,Wunderground v.1.15,2013-04-11 09:12:00,
2013-04-11 03:18:00,15.9,11.1,30.24,West,260,1.0,1.0,81,0.00,,,0.00,Wunderground v.1.15,2013-04-11 09:18:00,
2013-04-11 03:24:00,15.8,11.3,30.24,West,260,1.0,1.0,82,0.00,,,0.00,Wunderground v.1.15,2013-04-11 09:24:00,
2013-04-11 03:30:00,16.3,12.0,30.23,West,260,1.0,1.0,83,0.00,,,0.00,Wunderground v.1.15,2013-04-11 09:30:00,
2013-04-11 03:36:00,16.5,12.0,30.23,West,260,1.0,1.0,82,0.00,,,0.00,Wunderground v.1.15,2013-04-11 09:36:00,
2013-04-11 03:43:00,17.1,12.6,30.23,West,260,2.0,3.0,82,0.00,,,0.00,Wunderground v.1.15,2013-04-11 09:43:00,
2013-04-11 03:54:00,17.3,12.5,30.23,West,260,1.0,1.0,81,0.00,,,0.00,Wunderground v.1.15,2013-04-11 09:54:00,
2013-04-11 04:05:00,16.3,11.5,30.23,West,260,1.0,3.0,81,0.00,,,0.00,Wunderground v.1.15,2013-04-11 10:05:00,
2013-04-11 04:22:00,16.1,11.3,30.22,West,260,3.0,5.0,81,0.00,,,0.00,Wunderground v.1.15,2013-04-11 10:22:00,
2013-04-11 04:30:00,15.9,11.1,30.22,West,260,2.0,2.0,81,0.00,,,0.00,Wunderground v.1.15,2013-04-11 10:30:00,
2013-04-11 04:36:00,16.1,11.6,30.22,West,260,2.0,2.0,82,0.00,,,0.00,Wunderground v.1.15,2013-04-11 10:36:00,
2013-04-11 04:42:00,15.9,11.1,30.21,West,260,2.0,3.0,81,0.00,,,0.00,Wunderground v.1.15,2013-04-11 10:42:00,
2013-04-11 04:48:00,15.7,10.9,30.21,West,260,2.0,3.0,81,0.00,,,0.00,Wunderground v.1.15,2013-04-11 10:48:00,
2013-04-11 04:53:00,15.5,10.7,30.21,West,260,1.0,1.0,81,0.00,,,0.00,Wunderground v.1.15,2013-04-11 10:53:00,
2013-04-11 05:00:00,14.9,10.1,30.21,West,260,1.0,3.0,81,0.00,,,0.00,Wunderground v.1.15,2013-04-11 11:00:00,
2013-04-11 05:09:00,14.4,10.2,30.21,West,260,2.0,2.0,83,0.00,,,0.00,Wunderground v.1.15,2013-04-11 11:09:00,
2013-04-11 05:14:00,14.3,10.1,30.20,West,260,2.0,3.0,83,0.00,,,0.00,Wunderground v.1.15,2013-04-11 11:14:00,
2013-04-11 05:20:00,14.2,10.0,30.20,West,260,2.0,2.0,83,0.00,,,0.00,Wunderground v.1.15,2013-04-11 11:20:00,
2013-04-11 05:26:00,13.8,9.6,30.20,West,260,1.0,2.0,83,0.00,,,0.00,Wunderground v.1.15,2013-04-11 11:26:00,
2013-04-11 05:33:00,13.8,9.9,30.20,West,260,0.0,1.0,84,0.00,,,0.00,Wunderground v.1.15,2013-04-11 11:33:00,
2013-04-11 05:40:00,13.7,9.8,30.19,West,260,2.0,5.0,84,0.00,,,0.00,Wunderground v.1.15,2013-04-11 11:40:00,
2013-04-11 05:48:00,13.6,9.7,30.20,West,260,3.0,5.0,84,0.00,,,0.00,Wunderground v.1.15,2013-04-11 11:48:00,
2013-04-11 05:56:00,13.8,9.9,30.20,West,260,2.0,4.0,84,0.00,,,0.00,Wunderground v.1.15,2013-04-11 11:56:00,
2013-04-11 06:05:00,14.0,10.1,30.20,West,260,2.0,3.0,84,0.00,,,0.00,Wunderground v.1.15,2013-04-11 12:05:00,
2013-04-11 06:20:00,14.2,10.0,30.19,WSW,246,4.0,6.0,83,0.00,,,0.00,Wunderground v.1.15,2013-04-11 12:20:00,
2013-04-11 06:30:00,14.4,10.4,30.20,West,262,4.0,4.0,84,0.00,,,0.00,Wunderground v.1.15,2013-04-11 12:30:00,
2013-04-11 06:36:00,14.9,10.9,30.20,West,264,2.0,4.0,84,0.00,,,0.00,Wunderground v.1.15,2013-04-11 12:36:00,
2013-04-11 06:42:00,15.3,11.1,30.20,West,268,2.0,3.0,83,0.00,,,0.00,Wunderground v.1.15,2013-04-11 12:42:00,
2013-04-11 06:50:00,15.5,11.0,30.21,West,268,1.0,1.0,82,0.00,,,0.00,Wunderground v.1.15,2013-04-11 12:50:00,
2013-04-11 06:55:00,15.6,11.1,30.20,West,268,0.0,1.0,82,0.00,,,0.00,Wunderground v.1.15,2013-04-11 12:55:00,
2013-04-11 07:01:00,15.3,10.2,30.21,West,268,0.0,1.0,80,0.00,,,0.00,Wunderground v.1.15,2013-04-11 13:01:00,
2013-04-11 07:06:00,15.0,9.9,30.20,West,268,0.0,1.0,80,0.00,,,0.00,Wunderground v.1.15,2013-04-11 13:06:00,
2013-04-11 07:12:00,15.5,10.7,30.20,West,268,0.0,0.0,81,0.00,,,0.00,Wunderground v.1.15,2013-04-11 13:12:00,
2013-04-11 07:19:00,15.9,11.1,30.20,West,268,0.0,1.0,81,0.00,,,0.00,Wunderground v.1.15,2013-04-11 13:19:00,
2013-04-11 07:24:00,16.8,12.5,30.20,West,268,1.0,2.0,83,0.00,,,0.00,Wunderground v.1.15,2013-04-11 13:24:00,
2013-04-11 07:30:00,18.4,13.8,30.21,West,268,0.0,0.0,82,0.00,,,0.00,Wunderground v.1.15,2013-04-11 13:30:00,
2013-04-11 07:36:00,19.9,14.7,30.21,West,268,0.0,0.0,80,0.00,,,0.00,Wunderground v.1.15,2013-04-11 13:36:00,
2013-04-11 07:43:00,20.5,14.1,30.21,West,268,1.0,2.0,76,0.00,,,0.00,Wunderground v.1.15,2013-04-11 13:43:00,
2013-04-11 07:48:00,20.5,14.1,30.21,WSW,251,2.0,4.0,76,0.00,,,0.00,Wunderground v.1.15,2013-04-11 13:48:00,
2013-04-11 07:53:00,20.3,13.9,30.21,WSW,251,2.0,4.0,76,0.00,,,0.00,Wunderground v.1.15,2013-04-11 13:53:00,
2013-04-11 07:59:00,20.5,14.1,30.21,WSW,251,2.0,2.0,76,0.00,,,0.00,Wunderground v.1.15,2013-04-11 13:59:00,
2013-04-11 08:04:00,20.9,14.5,30.21,WSW,253,1.0,3.0,76,0.00,,,0.00,Wunderground v.1.15,2013-04-11 14:04:00,
2013-04-11 08:10:00,21.0,14.3,30.21,WSW,252,1.0,1.0,75,0.00,,,0.00,Wunderground v.1.15,2013-04-11 14:10:00,
2013-04-11 08:16:00,20.9,14.5,30.21,West,264,1.0,2.0,76,0.00,,,0.00,Wunderground v.1.15,2013-04-11 14:16:00,
2013-04-11 08:21:00,21.6,14.9,30.21,West,264,1.0,1.0,75,0.00,,,0.00,Wunderground v.1.15,2013-04-11 14:21:00,
2013-04-11 08:26:00,22.6,15.6,30.22,West,264,0.0,1.0,74,0.00,,,0.00,Wunderground v.1.15,2013-04-11 14:26:00,
2013-04-11 08:32:00,23.1,15.7,30.22,West,264,0.0,0.0,73,0.00,,,0.00,Wunderground v.1.15,2013-04-11 14:32:00,
2013-04-11 08:37:00,24.0,15.6,30.21,West,264,0.0,1.0,70,0.00,,,0.00,Wunderground v.1.15,2013-04-11 14:37:00,
2013-04-11 08:44:00,23.5,15.5,30.22,NNW,334,1.0,7.0,71,0.00,,,0.00,Wunderground v.1.15,2013-04-11 14:44:00,
2013-04-11 08:50:00,22.4,15.1,30.21,NW,306,4.0,4.0,73,0.00,,,0.00,Wunderground v.1.15,2013-04-11 14:50:00,
2013-04-11 08:55:00,21.9,14.9,30.21,NNW,335,4.0,4.0,74,0.00,,,0.00,Wunderground v.1.15,2013-04-11 14:55:00,
2013-04-11 09:03:00,22.9,15.8,30.21,NNW,343,6.0,10.0,74,0.00,,,0.00,Wunderground v.1.15,2013-04-11 15:03:00,
2013-04-11 09:10:00,23.3,16.2,30.21,North,359,7.0,8.0,74,0.00,,,0.00,Wunderground v.1.15,2013-04-11 15:10:00,
2013-04-11 09:17:00,23.2,16.4,30.21,North,4,8.0,11.0,75,0.00,,,0.00,Wunderground v.1.15,2013-04-11 15:17:00,
2013-04-11 09:25:00,22.6,15.6,30.22,North,4,8.0,9.0,74,0.00,,,0.00,Wunderground v.1.15,2013-04-11 15:25:00,
2013-04-11 09:34:00,22.6,16.5,30.22,NNW,345,7.0,9.0,77,0.00,,,0.00,Wunderground v.1.15,2013-04-11 15:34:00,
2013-04-11 10:29:00,24.0,19.0,30.22,NNW,332,7.0,7.0,81,0.00,,,0.00,Wunderground v.1.15,2013-04-11 16:29:00,
2013-04-11 10:40:00,24.3,19.3,30.22,NW,314,6.0,8.0,81,0.00,,,0.00,Wunderground v.1.15,2013-04-11 16:40:00,
2013-04-11 10:46:00,24.5,19.5,30.22,NW,311,6.0,8.0,81,0.00,,,0.00,Wunderground v.1.15,2013-04-11 16:46:00,
2013-04-11 10:52:00,25.1,20.1,30.22,WNW,303,6.0,7.0,81,0.00,,,0.00,Wunderground v.1.15,2013-04-11 16:52:00,
2013-04-11 10:58:00,25.4,20.4,30.22,WNW,295,6.0,10.0,81,0.00,,,0.00,Wunderground v.1.15,2013-04-11 16:58:00,
2013-04-11 11:04:00,25.5,20.5,30.22,NW,309,7.0,8.0,81,0.00,,,0.00,Wunderground v.1.15,2013-04-11 17:04:00,
2013-04-11 11:10:00,26.0,21.0,30.22,WNW,288,8.0,11.0,81,0.00,,,0.00,Wunderground v.1.15,2013-04-11 17:10:00,
2013-04-11 11:16:00,26.5,21.2,30.21,NW,309,9.0,12.0,80,0.00,,,0.00,Wunderground v.1.15,2013-04-11 17:16:00,
2013-04-11 11:25:00,27.2,21.2,30.21,NW,316,9.0,11.0,78,0.00,,,0.00,Wunderground v.1.15,2013-04-11 17:25:00,
2013-04-11 11:33:00,27.6,21.6,30.20,WNW,299,10.0,12.0,78,0.00,,,0.00,Wunderground v.1.15,2013-04-11 17:33:00,
2013-04-11 11:39:00,27.8,21.5,30.20,WNW,303,10.0,10.0,77,0.00,,,0.00,Wunderground v.1.15,2013-04-11 17:39:00,
2013-04-11 11:44:00,28.1,21.8,30.19,NW,310,10.0,10.0,77,0.00,,,0.00,Wunderground v.1.15,2013-04-11 17:44:00,
2013-04-11 11:50:00,28.8,22.5,30.19,NW,305,8.0,8.0,77,0.00,,,0.00,Wunderground v.1.15,2013-04-11 17:50:00,
2013-04-11 11:55:00,29.2,22.9,30.19,NNW,335,7.0,9.0,77,0.00,,,0.00,Wunderground v.1.15,2013-04-11 17:55:00,
2013-04-11 12:03:00,29.2,22.3,30.19,NNW,330,7.0,10.0,75,0.00,,,0.00,Wunderground v.1.15,2013-04-11 18:03:00,
2013-04-11 12:09:00,29.3,22.7,30.19,NNW,328,8.0,8.0,76,0.00,,,0.00,Wunderground v.1.15,2013-04-11 18:09:00,
2013-04-11 12:14:00,29.1,22.5,30.19,NW,321,8.0,11.0,76,0.00,,,0.00,Wunderground v.1.15,2013-04-11 18:14:00,
2013-04-11 12:23:00,29.4,23.1,30.18,NW,318,8.0,13.0,77,0.00,,,0.00,Wunderground v.1.15,2013-04-11 18:23:00,
2013-04-11 12:29:00,29.1,22.8,30.18,NNW,341,9.0,9.0,77,0.00,,,0.00,Wunderground v.1.15,2013-04-11 18:29:00,
2013-04-11 12:34:00,29.4,23.1,30.18,NNW,347,9.0,12.0,77,0.00,,,0.00,Wunderground v.1.15,2013-04-11 18:34:00,
2013-04-11 12:40:00,29.6,22.6,30.18,NW,310,9.0,9.0,75,0.00,,,0.00,Wunderground v.1.15,2013-04-11 18:40:00,
2013-04-11 12:46:00,29.8,23.2,30.18,NNW,340,9.0,13.0,76,0.00,,,0.00,Wunderground v.1.15,2013-04-11 18:46:00,
2013-04-11 12:52:00,30.0,23.0,30.17,NW,326,9.0,12.0,75,0.00,,,0.00,Wunderground v.1.15,2013-04-11 18:52:00,
2013-04-11 12:57:00,30.2,22.9,30.17,North,354,9.0,12.0,74,0.00,,,0.00,Wunderground v.1.15,2013-04-11 18:57:00,
2013-04-11 13:02:00,30.0,23.0,30.17,NNW,341,9.0,12.0,75,0.00,,,0.00,Wunderground v.1.15,2013-04-11 19:02:00,
2013-04-11 13:08:00,30.2,22.6,30.17,North,354,9.0,12.0,73,0.00,,,0.00,Wunderground v.1.15,2013-04-11 19:08:00,
2013-04-11 13:14:00,30.5,23.5,30.17,North,9,9.0,12.0,75,0.00,,,0.00,Wunderground v.1.15,2013-04-11 19:14:00,
2013-04-11 13:24:00,30.5,23.8,30.17,North,11,8.0,11.0,76,0.00,,,0.00,Wunderground v.1.15,2013-04-11 19:24:00,
2013-04-11 13:30:00,30.2,23.2,30.17,North,359,9.0,11.0,75,0.00,,,0.00,Wunderground v.1.15,2013-04-11 19:30:00,
2013-04-11 13:40:00,30.1,23.8,30.17,North,359,9.0,9.0,77,0.00,,,0.00,Wunderground v.1.15,2013-04-11 19:40:00,
2013-04-11 13:45:00,30.1,23.4,30.17,North,8,9.0,12.0,76,0.00,,,0.00,Wunderground v.1.15,2013-04-11 19:45:00,
2013-04-11 13:50:00,30.0,23.4,30.17,North,8,10.0,13.0,76,0.00,,,0.00,Wunderground v.1.15,2013-04-11 19:50:00,
2013-04-11 13:56:00,30.1,23.4,30.17,NNE,25,10.0,13.0,76,0.00,,,0.00,Wunderground v.1.15,2013-04-11 19:56:00,
2013-04-11 14:02:00,30.1,23.4,30.17,NNE,31,9.0,10.0,76,0.00,,,0.00,Wunderground v.1.15,2013-04-11 20:02:00,
2013-04-11 14:08:00,30.2,24.2,30.17,North,359,8.0,10.0,78,0.00,,,0.00,Wunderground v.1.15,2013-04-11 20:08:00,
2013-04-11 14:14:00,29.7,23.7,30.17,NNE,12,9.0,13.0,78,0.00,,,0.00,Wunderground v.1.15,2013-04-11 20:14:00,
2013-04-11 14:21:00,29.4,23.7,30.17,North,359,10.0,10.0,79,0.00,,,0.00,Wunderground v.1.15,2013-04-11 20:21:00,
2013-04-11 14:27:00,29.6,23.9,30.17,NNE,26,8.0,10.0,79,0.00,,,0.00,Wunderground v.1.15,2013-04-11 20:27:00,
2013-04-11 14:33:00,29.1,23.4,30.17,NNE,27,9.0,13.0,79,0.00,,,0.00,Wunderground v.1.15,2013-04-11 20:33:00,
2013-04-11 14:38:00,29.3,23.6,30.17,NNE,29,10.0,14.0,79,0.00,,,0.00,Wunderground v.1.15,2013-04-11 20:38:00,
2013-04-11 14:43:00,29.4,23.4,30.17,North,4,9.0,10.0,78,0.00,,,0.00,Wunderground v.1.15,2013-04-11 20:43:00,
2013-04-11 14:49:00,29.7,24.0,30.17,North,4,9.0,9.0,79,0.00,,,0.00,Wunderground v.1.15,2013-04-11 20:49:00,
2013-04-11 14:55:00,29.8,23.8,30.18,North,359,9.0,14.0,78,0.00,,,0.00,Wunderground v.1.15,2013-04-11 20:55:00,
2013-04-11 15:01:00,29.6,23.3,30.17,North,354,10.0,14.0,77,0.00,,,0.00,Wunderground v.1.15,2013-04-11 21:01:00,
2013-04-11 15:06:00,29.6,23.3,30.18,NNE,32,10.0,14.0,77,0.00,,,0.00,Wunderground v.1.15,2013-04-11 21:06:00,
2013-04-11 15:13:00,29.7,23.4,30.18,North,4,9.0,10.0,77,0.00,,,0.00,Wunderground v.1.15,2013-04-11 21:13:00,
2013-04-11 15:18:00,29.9,23.3,30.18,North,4,9.0,10.0,76,0.00,,,0.00,Wunderground v.1.15,2013-04-11 21:18:00,
2013-04-11 15:25:00,30.1,22.8,30.18,North,8,9.0,12.0,74,0.00,,,0.00,Wunderground v.1.15,2013-04-11 21:25:00,
2013-04-11 15:30:00,30.2,22.6,30.18,NNW,347,9.0,11.0,73,0.00,,,0.00,Wunderground v.1.15,2013-04-11 21:30:00,
2013-04-11 15:36:00,30.2,22.3,30.18,NW,326,10.0,12.0,72,0.00,,,0.00,Wunderground v.1.15,2013-04-11 21:36:00,
2013-04-11 15:41:00,30.2,22.6,30.18,NNW,340,10.0,12.0,73,0.00,,,0.00,Wunderground v.1.15,2013-04-11 21:41:00,
2013-04-11 15:47:00,30.3,22.4,30.18,North,354,9.0,12.0,72,0.00,,,0.00,Wunderground v.1.15,2013-04-11 21:47:00,
2013-04-11 15:52:00,30.3,22.7,30.18,NNW,337,9.0,11.0,73,0.00,,,0.00,Wunderground v.1.15,2013-04-11 21:52:00,
2013-04-11 15:57:00,30.5,22.5,30.18,NNW,336,8.0,11.0,72,0.00,,,0.00,Wunderground v.1.15,2013-04-11 21:57:00,
2013-04-11 16:03:00,30.6,22.6,30.18,NNW,341,7.0,8.0,72,0.00,,,0.00,Wunderground v.1.15,2013-04-11 22:03:00,
2013-04-11 16:09:00,30.6,22.6,30.18,NNW,339,8.0,8.0,72,0.00,,,0.00,Wunderground v.1.15,2013-04-11 22:09:00,
2013-04-11 16:14:00,30.6,23.0,30.18,North,8,8.0,10.0,73,0.00,,,0.00,Wunderground v.1.15,2013-04-11 22:14:00,
2013-04-11 16:20:00,30.6,23.3,30.18,NNW,334,8.0,8.0,74,0.00,,,0.00,Wunderground v.1.15,2013-04-11 22:20:00,
2013-04-11 16:26:00,30.7,24.0,30.18,North,349,8.0,10.0,76,0.00,,,0.00,Wunderground v.1.15,2013-04-11 22:26:00,
2013-04-11 16:33:00,31.3,24.3,30.18,NNW,348,8.0,9.0,75,0.00,,,0.00,Wunderground v.1.15,2013-04-11 22:33:00,
2013-04-11 16:38:00,31.8,24.5,30.18,NNW,345,9.0,12.0,74,0.00,,,0.00,Wunderground v.1.15,2013-04-11 22:38:00,
2013-04-11 16:44:00,32.3,24.6,30.18,North,354,9.0,9.0,73,0.00,,,0.00,Wunderground v.1.15,2013-04-11 22:44:00,
2013-04-11 16:49:00,32.5,24.5,30.18,North,354,8.0,12.0,72,0.00,,,0.00,Wunderground v.1.15,2013-04-11 22:49:00,
2013-04-11 16:55:00,32.5,24.8,30.18,NNW,339,9.0,12.0,73,0.00,,,0.00,Wunderground v.1.15,2013-04-11 22:55:00,
2013-04-11 17:01:00,32.5,25.1,30.18,NW,310,9.0,11.0,74,0.00,,,0.00,Wunderground v.1.15,2013-04-11 23:01:00,
2013-04-11 17:06:00,32.5,25.1,30.18,NNW,331,8.0,11.0,74,0.00,,,0.00,Wunderground v.1.15,2013-04-11 23:06:00,
2013-04-11 17:12:00,32.2,24.5,30.18,NNW,329,8.0,12.0,73,0.00,,,0.00,Wunderground v.1.15,2013-04-11 23:12:00,
2013-04-11 17:17:00,31.9,24.9,30.18,NW,325,8.0,12.0,75,0.00,,,0.00,Wunderground v.1.15,2013-04-11 23:17:00,
2013-04-11 17:23:00,31.9,24.9,30.18,NW,326,8.0,8.0,75,0.00,,,0.00,Wunderground v.1.15,2013-04-11 23:23:00,
2013-04-11 17:29:00,31.9,24.9,30.19,NNW,343,8.0,10.0,75,0.00,,,0.00,Wunderground v.1.15,2013-04-11 23:29:00,
2013-04-11 17:34:00,32.0,24.6,30.18,NNW,343,9.0,12.0,74,0.00,,,0.00,Wunderground v.1.15,2013-04-11 23:34:00,
2013-04-11 17:39:00,32.1,24.4,30.18,NNW,331,10.0,13.0,73,0.00,,,0.00,Wunderground v.1.15,2013-04-11 23:39:00,
2013-04-11 17:45:00,32.1,24.4,30.18,NNW,344,10.0,15.0,73,0.00,,,0.00,Wunderground v.1.15,2013-04-11 23:45:00,
2013-04-11 17:51:00,32.3,24.6,30.19,WNW,298,11.0,11.0,73,0.00,,,0.00,Wunderground v.1.15,2013-04-11 23:51:00,
2013-04-11 17:56:00,32.5,24.8,30.18,WNW,295,11.0,15.0,73,0.00,,,0.00,Wunderground v.1.15,2013-04-11 23:56:00,
2013-04-11 18:03:00,32.4,24.7,30.19,NW,316,11.0,12.0,73,0.00,,,0.00,Wunderground v.1.15,2013-04-12 00:03:00,
2013-04-11 18:08:00,32.3,24.9,30.19,NW,307,10.0,10.0,74,0.00,,,0.00,Wunderground v.1.15,2013-04-12 00:08:00,
2013-04-11 18:14:00,32.0,25.0,30.19,NW,322,10.0,13.0,75,0.00,,,0.00,Wunderground v.1.15,2013-04-12 00:14:00,
2013-04-11 18:19:00,31.9,25.2,30.19,NW,313,11.0,11.0,76,0.00,,,0.00,Wunderground v.1.15,2013-04-12 00:19:00,
2013-04-11 18:25:00,31.8,25.1,30.18,NW,305,11.0,15.0,76,0.00,,,0.00,Wunderground v.1.15,2013-04-12 00:25:00,
2013-04-11 18:30:00,31.7,25.3,30.18,NW,312,10.0,11.0,77,0.00,,,0.00,Wunderground v.1.15,2013-04-12 00:30:00,
2013-04-11 18:36:00,31.7,25.9,30.18,NW,310,10.0,12.0,79,0.00,,,0.00,Wunderground v.1.15,2013-04-12 00:36:00,
2013-04-11 18:42:00,31.7,26.8,30.18,NW,324,11.0,13.0,82,0.00,,,0.00,Wunderground v.1.15,2013-04-12 00:42:00,
2013-04-11 18:49:00,31.9,27.3,30.18,NW,320,11.0,14.0,83,0.00,,,0.00,Wunderground v.1.15,2013-04-12 00:49:00,
2013-04-11 18:54:00,32.0,27.7,30.18,NW,315,12.0,14.0,84,0.00,,,0.00,Wunderground v.1.15,2013-04-12 00:54:00,
2013-04-11 19:00:00,32.0,27.4,30.18,NW,314,11.0,15.0,83,0.00,,,0.00,Wunderground v.1.15,2013-04-12 01:00:00,
2013-04-11 19:06:00,32.0,27.7,30.18,NW,311,12.0,15.0,84,0.00,,,0.00,Wunderground v.1.15,2013-04-12 01:06:00,
2013-04-11 19:11:00,31.9,27.9,30.18,NW,322,11.0,13.0,85,0.00,,,0.00,Wunderground v.1.15,2013-04-12 01:11:00,
2013-04-11 19:16:00,31.9,27.9,30.19,NW,324,11.0,14.0,85,0.00,,,0.00,Wunderground v.1.15,2013-04-12 01:16:00,
2013-04-11 19:22:00,32.0,28.0,30.18,NNW,330,12.0,14.0,85,0.00,,,0.00,Wunderground v.1.15,2013-04-12 01:22:00,
2013-04-11 19:28:00,32.1,28.1,30.19,NW,314,12.0,14.0,85,0.00,,,0.00,Wunderground v.1.15,2013-04-12 01:28:00,
2013-04-11 19:33:00,32.1,28.1,30.19,NW,325,12.0,14.0,85,0.00,,,0.00,Wunderground v.1.15,2013-04-12 01:33:00,
2013-04-11 19:39:00,32.1,28.1,30.19,NNW,343,12.0,12.0,85,0.00,,,0.00,Wunderground v.1.15,2013-04-12 01:39:00,
2013-04-11 19:45:00,32.1,28.4,30.19,NNW,335,11.0,12.0,86,0.00,,,0.00,Wunderground v.1.15,2013-04-12 01:45:00,
2013-04-11 19:52:00,32.2,28.5,30.19,NW,324,10.0,12.0,86,0.00,,,0.00,Wunderground v.1.15,2013-04-12 01:52:00,
2013-04-11 19:57:00,32.2,28.5,30.19,NW,320,10.0,12.0,86,0.00,,,0.00,Wunderground v.1.15,2013-04-12 01:57:00,
2013-04-11 20:02:00,32.4,28.7,30.19,NW,318,9.0,12.0,86,0.00,,,0.00,Wunderground v.1.15,2013-04-12 02:02:00,
2013-04-11 20:08:00,32.5,28.5,30.20,NNW,334,10.0,15.0,85,0.00,,,0.00,Wunderground v.1.15,2013-04-12 02:08:00,
2013-04-11 20:14:00,32.6,28.6,30.20,NNW,330,11.0,14.0,85,0.00,,,0.00,Wunderground v.1.15,2013-04-12 02:14:00,
2013-04-11 20:19:00,32.6,28.6,30.20,NW,318,11.0,11.0,85,0.00,,,0.00,Wunderground v.1.15,2013-04-12 02:19:00,
2013-04-11 20:24:00,32.5,28.5,30.20,NW,325,10.0,12.0,85,0.00,,,0.00,Wunderground v.1.15,2013-04-12 02:24:00,
2013-04-11 20:30:00,32.6,28.6,30.20,NNW,332,10.0,11.0,85,0.00,,,0.00,Wunderground v.1.15,2013-04-12 02:30:00,
2013-04-11 20:36:00,32.7,28.7,30.21,NW,324,9.0,11.0,85,0.00,,,0.00,Wunderground v.1.15,2013-04-12 02:36:00,
2013-04-11 20:41:00,32.9,28.9,30.21,NNW,329,9.0,12.0,85,0.00,,,0.00,Wunderground v.1.15,2013-04-12 02:41:00,
2013-04-11 20:47:00,33.0,29.0,30.21,NW,323,9.0,12.0,85,0.00,,,0.00,Wunderground v.1.15,2013-04-12 02:47:00,
2013-04-11 20:53:00,32.9,28.9,30.21,NW,324,9.0,9.0,85,0.00,,,0.00,Wunderground v.1.15,2013-04-12 02:53:00,
2013-04-11 20:59:00,32.8,29.1,30.21,NNW,330,10.0,11.0,86,0.00,,,0.00,Wunderground v.1.15,2013-04-12 02:59:00,
2013-04-11 21:05:00,32.8,29.1,30.21,NW,321,10.0,13.0,86,0.00,,,0.00,Wunderground v.1.15,2013-04-12 03:05:00,
2013-04-11 21:10:00,32.9,29.5,30.21,NNW,348,9.0,9.0,87,0.00,,,0.00,Wunderground v.1.15,2013-04-12 03:10:00,
2013-04-11 21:16:00,32.8,29.4,30.21,NW,322,9.0,11.0,87,0.00,,,0.00,Wunderground v.1.15,2013-04-12 03:16:00,
2013-04-11 21:21:00,32.8,29.4,30.22,NNW,335,8.0,11.0,87,0.00,,,0.00,Wunderground v.1.15,2013-04-12 03:21:00,
2013-04-11 21:26:00,32.8,29.4,30.22,NW,322,8.0,11.0,87,0.00,,,0.00,Wunderground v.1.15,2013-04-12 03:26:00,
2013-04-11 21:32:00,32.8,29.4,30.22,NW,319,7.0,8.0,87,0.00,,,0.00,Wunderground v.1.15,2013-04-12 03:32:00,
2013-04-11 21:39:00,32.7,29.5,30.22,NW,311,6.0,6.0,88,0.00,,,0.00,Wunderground v.1.15,2013-04-12 03:39:00,
2013-04-11 21:44:00,32.6,29.4,30.22,NW,310,6.0,9.0,88,0.00,,,0.00,Wunderground v.1.15,2013-04-12 03:44:00,
2013-04-11 21:50:00,32.7,29.8,30.22,NNW,344,6.0,7.0,89,0.00,,,0.00,Wunderground v.1.15,2013-04-12 03:50:00,
2013-04-11 21:57:00,32.7,30.1,30.22,NW,324,6.0,9.0,90,0.00,,,0.00,Wunderground v.1.15,2013-04-12 03:57:00,
2013-04-11 23:08:00,32.9,29.5,30.21,NNW,346,5.0,6.0,87,0.00,,,0.00,Wunderground v.1.15,2013-04-12 05:08:00,
2013-04-11 23:26:00,32.9,28.9,30.22,NNW,345,5.0,6.0,85,0.00,,,0.00,Wunderground v.1.15,2013-04-12 05:26:00,
2013-04-11 23:32:00,32.9,28.6,30.21,North,359,5.0,6.0,84,0.00,,,0.00,Wunderground v.1.15,2013-04-12 05:32:00,
2013-04-11 23:37:00,33.0,28.4,30.22,North,359,4.0,7.0,83,0.00,,,0.00,Wunderground v.1.15,2013-04-12 05:37:00,
2013-04-11 23:44:00,33.1,28.5,30.21,North,359,5.0,6.0,83,0.00,,,0.00,Wunderground v.1.15,2013-04-12 05:44:00,
2013-04-11 23:50:00,33.0,28.4,30.21,North,354,5.0,5.0,83,0.00,,,0.00,Wunderground v.1.15,2013-04-12 05:50:00,
2013-04-11 23:57:00,32.8,28.2,30.22,North,354,4.0,5.0,83,0.00,,,0.00,Wunderground v.1.15,2013-04-12 05:57:00,